Time;durP1;ratioP1;P1;durP2;ratioP2;P2;SDS_P1;SDS_P2;PMS_P1;PMS_P2;Temp;Humidity;BMP_temperature;BMP_pressure;BME280_temperature;BME280_humidity;BME280_pressure;Samples;Min_cycle;Max_cycle;Signal;HPM_P1;HPM_P2
2022/07/22 00:01:24;;;;;;;2.65;0.80;;;21.00;93.10;;;;;;10582248;27;20028;-65
2022/07/22 00:06:25;;;;;;;2.90;0.90;;;20.90;93.00;;;;;;10576189;27;20117;-65
2022/07/22 00:11:26;;;;;;;1.48;0.82;;;20.90;93.00;;;;;;10591262;27;20035;-65
2022/07/22 00:16:27;;;;;;;1.38;0.90;;;20.90;93.00;;;;;;10583145;27;20063;-65
2022/07/22 00:21:28;;;;;;;1.83;0.85;;;20.90;93.00;;;;;;10578972;27;20447;-65
2022/07/22 00:26:28;;;;;;;3.13;1.48;;;20.90;93.00;;;;;;10600317;27;20127;-65
2022/07/22 00:31:30;;;;;;;2.90;1.30;;;20.90;93.00;;;;;;10590723;27;20039;-65
2022/07/22 00:36:31;;;;;;;3.97;0.82;;;20.90;93.00;;;;;;10590184;28;20047;-65
2022/07/22 00:41:32;;;;;;;2.83;0.90;;;20.80;92.90;;;;;;10579296;27;20023;-65
2022/07/22 00:46:33;;;;;;;1.60;0.93;;;20.80;92.90;;;;;;10576663;27;20648;-65
2022/07/22 00:51:35;;;;;;;3.58;1.88;;;20.80;92.90;;;;;;10584658;27;20024;-65
2022/07/22 00:56:37;;;;;;;2.45;1.00;;;20.80;92.90;;;;;;10585989;28;20031;-65
2022/07/22 01:01:38;;;;;;;1.88;1.05;;;20.80;92.90;;;;;;10589082;28;20031;-65
2022/07/22 01:06:44;;;;;;;3.25;1.23;;;20.80;92.90;;;;;;10579290;28;20512;-65
2022/07/22 01:11:45;;;;;;;3.53;1.30;;;20.80;92.90;;;;;;10591057;28;20114;-65
2022/07/22 01:16:45;;;;;;;1.88;1.20;;;20.80;92.90;;;;;;10599563;27;20035;-65
2022/07/22 01:21:46;;;;;;;2.55;0.90;;;20.80;92.90;;;;;;10595557;27;20040;-65
2022/07/22 01:26:48;;;;;;;2.03;1.20;;;20.70;92.80;;;;;;10594276;27;20038;-65
2022/07/22 01:31:48;;;;;;;2.88;1.10;;;20.70;92.80;;;;;;10586672;27;20420;-65
2022/07/22 01:36:49;;;;;;;1.50;0.80;;;20.70;92.80;;;;;;10602947;27;20043;-65
2022/07/22 01:41:50;;;;;;;3.33;0.90;;;20.70;92.80;;;;;;10593343;27;20477;-65
2022/07/22 01:46:51;;;;;;;4.38;1.20;;;20.70;92.70;;;;;;10593986;27;20027;-65
2022/07/22 01:51:52;;;;;;;3.85;1.15;;;20.70;92.70;;;;;;10604877;27;20122;-65
2022/07/22 01:56:52;;;;;;;4.13;1.27;;;20.60;92.70;;;;;;10592676;27;20164;-65
2022/07/22 02:01:54;;;;;;;2.75;0.90;;;20.60;92.70;;;;;;10612731;27;20035;-65
2022/07/22 02:06:55;;;;;;;2.90;1.00;;;20.60;92.70;;;;;;10586413;27;20023;-65
2022/07/22 02:11:55;;;;;;;2.30;1.30;;;20.60;92.70;;;;;;10591415;27;20047;-65
2022/07/22 02:16:56;;;;;;;2.78;1.10;;;20.60;92.70;;;;;;10582708;27;20126;-65
2022/07/22 02:21:56;;;;;;;3.15;1.27;;;20.60;92.70;;;;;;10594840;27;20038;-65
2022/07/22 02:26:57;;;;;;;1.90;1.02;;;20.50;92.60;;;;;;10587177;27;20031;-65
2022/07/22 02:31:58;;;;;;;2.00;0.93;;;20.60;92.70;;;;;;10583011;27;20035;-65
2022/07/22 02:36:59;;;;;;;2.30;1.00;;;20.50;92.60;;;;;;10587416;27;20057;-65
2022/07/22 02:42:00;;;;;;;3.38;1.00;;;20.50;92.60;;;;;;10585250;27;20031;-65
2022/07/22 02:47:01;;;;;;;2.80;1.00;;;20.50;92.60;;;;;;10580166;27;20023;-65
2022/07/22 02:52:01;;;;;;;2.05;1.08;;;20.50;92.60;;;;;;10579640;27;20045;-65
2022/07/22 02:57:02;;;;;;;1.95;0.93;;;20.50;92.60;;;;;;10594375;27;20031;-65
2022/07/22 03:02:03;;;;;;;1.70;0.90;;;20.50;92.60;;;;;;10586989;27;20036;-65
2022/07/22 03:07:04;;;;;;;3.47;1.20;;;20.50;92.60;;;;;;10587976;27;20027;-65
2022/07/22 03:12:05;;;;;;;2.78;1.52;;;20.50;92.60;;;;;;10596582;27;20031;-65
2022/07/22 03:17:06;;;;;;;2.83;1.00;;;20.50;92.60;;;;;;10584164;27;20027;-65
2022/07/22 03:22:07;;;;;;;3.25;0.80;;;20.40;92.50;;;;;;10583855;27;20035;-65
2022/07/22 03:27:08;;;;;;;1.70;1.10;;;20.40;92.50;;;;;;10573259;27;20035;-65
2022/07/22 03:32:09;;;;;;;3.70;0.90;;;20.40;92.50;;;;;;10592295;27;20031;-65
2022/07/22 03:37:10;;;;;;;1.80;0.95;;;20.40;92.50;;;;;;10579000;27;20571;-65
2022/07/22 03:42:10;;;;;;;1.88;1.00;;;20.40;92.50;;;;;;10587359;27;20019;-65
2022/07/22 03:47:11;;;;;;;1.42;0.93;;;20.40;92.50;;;;;;10589536;27;20023;-65
2022/07/22 03:52:13;;;;;;;1.75;0.80;;;20.40;92.50;;;;;;10590399;27;20117;-65
2022/07/22 03:57:13;;;;;;;2.22;1.00;;;20.30;92.50;;;;;;10592821;27;20569;-65
2022/07/22 04:02:14;;;;;;;3.47;1.63;;;20.40;92.50;;;;;;10596300;27;20034;-65
2022/07/22 04:07:14;;;;;;;3.42;1.00;;;20.30;92.50;;;;;;10592844;27;20258;-65
2022/07/22 04:12:15;;;;;;;3.00;0.98;;;20.30;92.50;;;;;;11616952;22;20052;-66
2022/07/22 04:17:16;;;;;;;2.15;1.10;;;20.30;92.50;;;;;;10549745;28;20032;-65
2022/07/22 04:22:17;;;;;;;3.45;1.20;;;20.30;92.70;;;;;;10549265;28;20406;-66
2022/07/22 04:27:17;;;;;;;2.90;1.15;;;20.30;92.50;;;;;;10549924;28;20068;-65
2022/07/22 04:32:18;;;;;;;4.55;0.95;;;20.30;92.50;;;;;;10522568;28;20031;-65
2022/07/22 04:37:19;;;;;;;1.48;0.95;;;20.30;92.50;;;;;;10451633;28;20119;-66
2022/07/22 04:42:19;;;;;;;2.83;0.85;;;20.30;92.40;;;;;;10457570;28;20036;-65
2022/07/22 04:47:20;;;;;;;1.65;0.75;;;20.30;92.40;;;;;;10458761;28;20817;-64
2022/07/22 04:52:21;;;;;;;3.33;1.17;;;20.30;92.40;;;;;;10469066;28;20028;-64
2022/07/22 04:57:21;;;;;;;6.47;1.38;;;20.20;92.40;;;;;;10459211;28;20133;-64
2022/07/22 05:02:22;;;;;;;2.30;1.52;;;20.20;92.60;;;;;;10460713;28;20423;-64
2022/07/22 05:07:23;;;;;;;1.92;1.08;;;20.10;92.50;;;;;;10466642;27;20024;-64
2022/07/22 05:12:24;;;;;;;2.65;1.13;;;20.10;92.50;;;;;;10467388;27;20608;-64
2022/07/22 05:17:24;;;;;;;2.42;1.02;;;20.20;92.50;;;;;;10463580;28;20024;-64
2022/07/22 05:22:25;;;;;;;2.95;1.05;;;20.20;92.50;;;;;;10468329;27;20039;-64
2022/07/22 05:27:26;;;;;;;2.95;1.08;;;20.20;92.40;;;;;;10464527;28;20111;-64
2022/07/22 05:32:26;;;;;;;2.97;0.90;;;20.20;92.40;;;;;;10466174;27;20325;-65
2022/07/22 05:37:27;;;;;;;1.67;0.98;;;20.20;92.60;;;;;;10466201;28;20036;-64
2022/07/22 05:42:28;;;;;;;2.63;1.20;;;20.20;92.30;;;;;;10468356;28;20398;-64
2022/07/22 05:47:29;;;;;;;2.50;0.90;;;20.20;92.30;;;;;;10469446;28;20154;-64
2022/07/22 05:52:29;;;;;;;2.75;1.20;;;20.20;92.30;;;;;;10469101;28;20468;-64
2022/07/22 05:57:30;;;;;;;2.53;0.95;;;20.20;92.30;;;;;;10446322;28;20384;-64
2022/07/22 06:02:31;;;;;;;2.35;0.90;;;20.20;92.20;;;;;;10459107;28;20503;-64
2022/07/22 06:07:32;;;;;;;3.35;1.25;;;20.20;92.20;;;;;;10467232;28;20151;-64
2022/07/22 06:12:32;;;;;;;2.78;0.95;;;20.20;92.20;;;;;;10465409;28;20534;-64
2022/07/22 06:17:34;;;;;;;1.63;1.10;;;20.20;92.20;;;;;;10454954;28;20036;-64
2022/07/22 06:22:34;;;;;;;1.23;0.88;;;20.20;92.10;;;;;;10448810;28;20058;-64
2022/07/22 06:27:35;;;;;;;2.38;1.23;;;20.20;92.10;;;;;;10468881;27;20371;-64
2022/07/22 06:32:36;;;;;;;0.93;0.77;;;20.20;92.00;;;;;;10464119;28;20031;-64
2022/07/22 06:37:37;;;;;;;1.90;0.77;;;20.30;92.00;;;;;;10461089;28;20721;-64
2022/07/22 06:42:38;;;;;;;1.48;0.95;;;20.30;92.00;;;;;;10458825;28;20150;-64
2022/07/22 06:47:39;;;;;;;0.75;0.70;;;20.30;92.00;;;;;;10460198;28;20039;-65
2022/07/22 06:52:41;;;;;;;2.83;1.10;;;20.30;92.00;;;;;;10461716;27;20466;-65
2022/07/22 06:57:42;;;;;;;2.17;0.90;;;20.30;91.90;;;;;;10464823;27;20063;-65
2022/07/22 07:02:43;;;;;;;4.40;1.05;;;20.30;91.90;;;;;;10470043;27;20035;-65
2022/07/22 07:07:43;;;;;;;1.20;0.75;;;20.30;91.80;;;;;;10469000;27;20328;-65
2022/07/22 07:12:44;;;;;;;1.58;0.90;;;20.30;91.80;;;;;;10467875;27;20658;-65
2022/07/22 07:17:45;;;;;;;3.28;1.20;;;20.30;91.80;;;;;;10456346;27;20104;-65
2022/07/22 07:22:46;;;;;;;2.72;1.48;;;20.30;91.70;;;;;;10456694;27;20389;-65
2022/07/22 07:27:47;;;;;;;1.35;0.90;;;20.30;91.60;;;;;;10459813;27;20114;-66
2022/07/22 07:32:48;;;;;;;4.18;0.85;;;20.40;91.60;;;;;;10468746;27;20112;-65
2022/07/22 07:37:48;;;;;;;1.45;0.70;;;20.40;91.60;;;;;;10465112;28;20039;-65
2022/07/22 07:42:49;;;;;;;3.10;1.05;;;20.40;91.50;;;;;;10468333;28;20035;-65
2022/07/22 07:47:50;;;;;;;4.82;1.33;;;20.40;91.50;;;;;;10473218;27;20286;-65
2022/07/22 07:52:51;;;;;;;2.65;1.17;;;20.40;91.40;;;;;;10472202;27;20058;-65
2022/07/22 07:57:52;;;;;;;1.92;1.00;;;20.50;91.40;;;;;;10474650;28;20512;-65
2022/07/22 08:02:52;;;;;;;1.85;0.93;;;20.50;91.30;;;;;;10449781;28;20036;-65
2022/07/22 08:07:53;;;;;;;2.17;0.90;;;20.50;91.20;;;;;;10452151;28;20039;-65
2022/07/22 08:12:55;;;;;;;1.70;1.00;;;20.50;91.20;;;;;;10469040;27;20158;-65
2022/07/22 08:17:56;;;;;;;1.80;0.95;;;20.50;91.10;;;;;;10461759;27;20695;-65
2022/07/22 08:22:57;;;;;;;2.92;1.20;;;20.60;91.00;;;;;;10451902;28;20040;-65
2022/07/22 08:27:58;;;;;;;2.30;0.95;;;20.60;90.90;;;;;;10447289;27;20024;-65
2022/07/22 08:32:59;;;;;;;2.78;1.05;;;20.60;90.90;;;;;;10443254;28;20677;-65
2022/07/22 08:38:00;;;;;;;1.17;0.95;;;20.60;90.80;;;;;;10463944;28;20401;-65
2022/07/22 08:43:02;;;;;;;1.38;0.90;;;20.60;90.80;;;;;;10457023;28;20257;-65
2022/07/22 08:48:05;;;;;;;1.58;0.90;;;20.60;90.80;;;;;;10459362;28;20408;-65
2022/07/22 08:53:10;;;;;;;2.58;1.02;;;20.60;90.80;;;;;;10457777;28;20050;-65
2022/07/22 08:58:11;;;;;;;1.83;1.00;;;20.60;90.70;;;;;;10439238;28;20027;-65
2022/07/22 09:03:25;;;;;;;2.72;1.20;;;20.60;90.70;;;;;;10460208;28;20031;-65
2022/07/22 09:08:26;;;;;;;2.28;0.90;;;20.60;90.60;;;;;;10468763;28;20172;-65
2022/07/22 09:13:26;;;;;;;1.60;1.00;;;20.60;90.70;;;;;;10470481;28;20546;-64
2022/07/22 09:18:27;;;;;;;3.42;1.00;;;20.60;90.60;;;;;;10459710;28;20024;-64
2022/07/22 09:23:39;;;;;;;2.50;1.15;;;20.70;90.60;;;;;;10458333;28;20127;-65
2022/07/22 09:28:54;;;;;;;2.20;1.05;;;20.70;90.50;;;;;;10464990;28;20484;-65
2022/07/22 09:33:56;;;;;;;2.13;1.17;;;20.70;90.50;;;;;;10464728;28;20134;-65
2022/07/22 09:38:57;;;;;;;2.40;1.08;;;20.70;90.50;;;;;;10474170;28;20143;-65
2022/07/22 09:43:57;;;;;;;1.42;0.80;;;20.70;90.40;;;;;;10474192;27;20063;-65
2022/07/22 09:48:58;;;;;;;1.17;0.80;;;20.80;90.40;;;;;;10477847;27;20336;-65
2022/07/22 09:53:59;;;;;;;0.88;0.80;;;20.80;90.30;;;;;;10458266;27;20434;-65
2022/07/22 09:58:59;;;;;;;1.20;1.05;;;20.90;90.30;;;;;;10464844;27;20024;-64
2022/07/22 10:04:02;;;;;;;0.90;0.80;;;20.90;90.20;;;;;;10470478;27;20481;-64
2022/07/22 10:09:04;;;;;;;0.82;0.80;;;20.90;90.20;;;;;;10480451;27;20035;-64
2022/07/22 10:14:05;;;;;;;1.10;0.80;;;20.90;90.20;;;;;;10472908;27;20056;-64
2022/07/22 10:19:06;;;;;;;1.55;0.85;;;20.90;90.20;;;;;;10475393;28;20385;-64
2022/07/22 10:24:14;;;;;;;1.20;0.90;;;20.90;90.10;;;;;;10476293;27;20572;-65
2022/07/22 10:29:29;;;;;;;2.30;0.85;;;20.90;90.10;;;;;;10478073;27;20024;-65
2022/07/22 10:34:29;;;;;;;1.67;0.85;;;20.90;90.00;;;;;;10472752;27;20456;-64
2022/07/22 10:39:30;;;;;;;1.10;0.90;;;20.90;90.00;;;;;;10476193;27;20409;-64
2022/07/22 10:44:47;;;;;;;0.95;0.70;;;20.90;90.00;;;;;;10475129;27;20135;-65
2022/07/22 10:49:47;;;;;;;4.20;1.08;;;20.90;89.90;;;;;;10474825;28;20077;-65
2022/07/22 10:55:20;;;;;;;1.15;0.80;;;20.90;90.00;;;;;;10469140;27;20275;-65
2022/07/22 11:00:20;;;;;;;0.82;0.80;;;21.00;89.80;;;;;;10478811;27;20030;-65
2022/07/22 11:05:30;;;;;;;1.63;0.80;;;21.00;90.00;;;;;;10477791;27;20466;-63
2022/07/22 11:10:30;;;;;;;3.03;1.05;;;21.00;89.80;;;;;;10462651;27;20199;-65
2022/07/22 11:15:31;;;;;;;2.60;0.90;;;21.00;89.80;;;;;;10467820;27;20043;-64
2022/07/22 11:20:32;;;;;;;1.52;0.82;;;21.00;89.70;;;;;;10461073;28;20074;-65
2022/07/22 11:25:33;;;;;;;2.13;0.90;;;21.00;89.80;;;;;;10444885;28;20043;-64
2022/07/22 11:30:33;;;;;;;1.00;0.82;;;21.00;89.80;;;;;;10456776;28;20059;-64
2022/07/22 11:35:37;;;;;;;1.52;1.00;;;21.00;89.70;;;;;;10464169;27;20044;-65
2022/07/22 11:40:37;;;;;;;2.25;0.98;;;21.10;89.70;;;;;;10472835;27;20039;-65
2022/07/22 11:45:55;;;;;;;1.30;0.93;;;21.00;89.50;;;;;;10481444;27;20213;-62
2022/07/22 11:51:00;;;;;;;;;;;21.10;89.10;;;;;;10495163;27;20019;-63
2022/07/22 11:56:02;;;;;;;1.48;0.93;;;21.00;88.80;;;;;;10473759;27;20341;-62
2022/07/22 12:01:09;;;;;;;2.30;1.00;;;21.10;89.40;;;;;;10475716;27;20480;-63
2022/07/22 12:06:12;;;;;;;1.92;1.00;;;21.10;89.30;;;;;;10461967;28;20480;-61
2022/07/22 12:11:15;;;;;;;0.90;0.77;;;21.10;89.00;;;;;;10517060;22;20058;-64
2022/07/22 12:16:21;;;;;;;1.30;0.90;;;21.20;89.00;;;;;;10501525;27;20038;-64
2022/07/22 12:21:23;;;;;;;1.48;0.95;;;21.20;88.80;;;;;;10510541;27;20321;-65
2022/07/22 12:26:47;;;;;;;1.15;0.80;;;21.20;88.70;;;;;;10503987;27;20256;-64
2022/07/22 12:31:48;;;;;;;2.08;1.00;;;21.30;88.40;;;;;;10501411;27;20231;-64
2022/07/22 12:36:49;;;;;;;1.38;0.70;;;21.30;88.60;;;;;;10502220;27;20031;-64
2022/07/22 12:41:53;;;;;;;2.20;0.90;;;21.30;88.60;;;;;;10501518;28;20039;-64
2022/07/22 12:46:55;;;;;;;2.25;0.80;;;21.30;88.50;;;;;;10499118;28;20509;-63
2022/07/22 12:52:13;;;;;;;1.83;0.88;;;21.30;88.40;;;;;;10495773;27;20434;-64
2022/07/22 12:57:14;;;;;;;2.53;0.80;;;21.30;88.10;;;;;;10502982;28;20909;-64
2022/07/22 13:02:14;;;;;;;1.23;0.93;;;21.30;88.40;;;;;;10499729;27;20039;-64
2022/07/22 13:07:16;;;;;;;1.73;0.90;;;21.30;88.30;;;;;;10502938;28;20031;-64
2022/07/22 13:12:16;;;;;;;1.52;0.77;;;21.30;88.40;;;;;;10506163;27;20131;-65
2022/07/22 13:17:17;;;;;;;3.00;0.80;;;21.30;88.30;;;;;;10506341;27;20374;-64
2022/07/22 13:22:18;;;;;;;1.63;0.70;;;21.30;88.20;;;;;;10510540;27;20096;-64
2022/07/22 13:27:19;;;;;;;2.08;1.02;;;21.30;88.20;;;;;;10500976;27;20438;-64
2022/07/22 13:32:19;;;;;;;1.10;0.77;;;21.40;88.20;;;;;;10506163;27;20134;-63
2022/07/22 13:37:22;;;;;;;1.20;0.90;;;21.30;88.10;;;;;;10509048;27;20142;-64
2022/07/22 13:52:46;;;;;;;1.02;0.80;;;21.40;88.20;;;;;;11561002;22;20064;-64
2022/07/22 13:57:46;;;;;;;1.20;0.73;;;21.30;88.10;;;;;;10427710;28;20032;-63
2022/07/22 14:02:47;;;;;;;1.75;0.75;;;21.30;88.10;;;;;;10426990;28;20044;-64
2022/07/22 14:07:48;;;;;;;1.88;0.70;;;21.50;88.20;;;;;;10429295;28;20147;-64
2022/07/22 14:12:50;;;;;;;2.38;0.82;;;21.30;88.10;;;;;;10416329;28;20120;-64
2022/07/22 14:17:50;;;;;;;0.82;0.75;;;21.30;88.30;;;;;;10422565;28;20647;-64
2022/07/22 14:22:51;;;;;;;0.73;0.70;;;21.30;88.30;;;;;;10422146;28;20147;-64
2022/07/22 14:27:52;;;;;;;1.00;0.60;;;21.30;88.30;;;;;;10400828;28;20639;-64
2022/07/22 14:32:53;;;;;;;0.98;0.65;;;21.30;88.20;;;;;;10407944;28;20726;-64
2022/07/22 14:37:53;;;;;;;0.85;0.60;;;21.30;88.10;;;;;;10419610;28;20394;-65
2022/07/22 14:42:54;;;;;;;1.17;0.52;;;21.30;88.00;;;;;;10401752;28;20055;-65
2022/07/22 14:47:55;;;;;;;0.90;0.70;;;21.40;87.90;;;;;;10421546;28;20020;-65
2022/07/22 14:52:56;;;;;;;1.63;0.60;;;21.40;87.80;;;;;;10409964;28;20052;-64
2022/07/22 14:57:57;;;;;;;0.75;0.57;;;21.60;87.90;;;;;;10427416;28;20513;-64
2022/07/22 15:02:58;;;;;;;0.70;0.50;;;21.40;88.20;;;;;;10417817;28;20142;-64
2022/07/22 15:07:59;;;;;;;0.90;0.70;;;21.40;87.90;;;;;;10423342;28;20109;-64
2022/07/22 15:13:00;;;;;;;0.60;0.60;;;21.30;88.40;;;;;;10418959;28;20505;-63
2022/07/22 15:18:01;;;;;;;0.77;0.50;;;21.30;88.00;;;;;;10419322;28;20165;-65
2022/07/22 15:23:02;;;;;;;1.13;0.50;;;21.30;88.00;;;;;;10397383;28;20818;-63
2022/07/22 15:28:02;;;;;;;0.80;0.50;;;21.30;87.90;;;;;;10417144;28;20043;-65
2022/07/22 15:33:03;;;;;;;0.35;0.35;;;21.30;87.90;;;;;;10415434;28;20036;-64
2022/07/22 15:38:04;;;;;;;0.65;0.47;;;21.30;87.90;;;;;;10418411;28;20017;-64
2022/07/22 15:43:06;;;;;;;0.98;0.50;;;21.30;87.70;;;;;;10420871;28;20539;-64
2022/07/22 15:48:06;;;;;;;1.25;0.70;;;21.30;87.70;;;;;;10415603;28;20461;-64
2022/07/22 15:53:07;;;;;;;0.80;0.60;;;21.40;87.40;;;;;;10441589;28;20052;-64
2022/07/22 16:03:27;;;;;;;1.52;0.60;;;21.50;87.00;;;;;;10454526;28;20228;-64
2022/07/22 16:08:28;;;;;;;0.90;0.50;;;21.50;86.90;;;;;;10459571;28;20031;-64
2022/07/22 16:13:29;;;;;;;1.25;0.60;;;21.50;86.90;;;;;;10441073;28;20035;-64
2022/07/22 16:18:30;;;;;;;1.73;0.70;;;21.50;86.90;;;;;;10454241;28;20594;-64
2022/07/22 16:23:32;;;;;;;0.73;0.52;;;21.50;86.70;;;;;;10459097;28;20052;-64
2022/07/22 16:28:33;;;;;;;0.65;0.65;;;21.50;86.80;;;;;;10427364;28;20020;-64
2022/07/22 16:33:33;;;;;;;0.88;0.82;;;21.50;86.70;;;;;;10455548;28;20594;-63
2022/07/22 16:38:34;;;;;;;1.17;0.60;;;21.50;86.70;;;;;;10460127;28;20758;-63
2022/07/22 16:43:35;;;;;;;0.60;0.60;;;21.40;86.70;;;;;;10565897;22;21162;-63
2022/07/22 16:48:35;;;;;;;1.25;0.70;;;21.40;86.80;;;;;;10510115;27;20141;-64
2022/07/22 16:53:36;;;;;;;0.95;0.80;;;21.40;86.70;;;;;;10507866;27;20465;-64
2022/07/22 16:58:37;;;;;;;0.93;0.60;;;21.40;86.80;;;;;;10514262;27;20027;-63
2022/07/22 17:03:38;;;;;;;1.23;0.65;;;21.40;86.90;;;;;;10509363;27;20040;-64
2022/07/22 17:08:39;;;;;;;2.05;0.90;;;21.40;87.50;;;;;;10514169;27;20783;-63
2022/07/22 17:13:39;;;;;;;1.13;0.80;;;21.30;86.90;;;;;;10523593;27;20074;-64
2022/07/22 17:18:40;;;;;;;0.50;0.50;;;21.30;87.00;;;;;;10514648;27;20063;-65
2022/07/22 17:23:41;;;;;;;2.53;0.70;;;21.30;87.00;;;;;;10497197;27;20035;-64
2022/07/22 17:28:42;;;;;;;0.60;0.60;;;21.30;87.00;;;;;;10514393;27;20175;-63
2022/07/22 17:33:43;;;;;;;0.80;0.70;;;21.30;87.10;;;;;;10516923;27;20039;-63
2022/07/22 17:38:44;;;;;;;1.73;0.80;;;21.20;87.00;;;;;;10629668;22;20025;-63
2022/07/22 17:43:45;;;;;;;1.20;0.68;;;21.20;87.10;;;;;;10512260;27;20838;-64
2022/07/22 17:48:46;;;;;;;1.90;0.60;;;21.20;87.10;;;;;;10514969;27;20415;-63
2022/07/22 17:53:46;;;;;;;0.57;0.57;;;21.20;87.20;;;;;;10519844;27;20070;-64
2022/07/22 17:58:47;;;;;;;1.25;0.70;;;21.10;87.20;;;;;;10512359;27;20354;-63
2022/07/22 18:03:48;;;;;;;1.40;0.70;;;21.10;87.20;;;;;;10505643;27;20092;-63
2022/07/22 18:08:49;;;;;;;1.33;0.70;;;21.10;87.40;;;;;;10502363;27;20023;-64
2022/07/22 18:13:49;;;;;;;1.58;0.80;;;21.10;87.50;;;;;;10505672;27;20047;-65
2022/07/22 18:18:50;;;;;;;0.60;0.60;;;21.00;87.40;;;;;;10502317;27;20209;-64
2022/07/22 18:23:51;;;;;;;1.52;0.80;;;21.00;87.50;;;;;;10503165;27;20575;-63
2022/07/22 18:28:52;;;;;;;1.00;0.70;;;21.00;87.50;;;;;;10496346;27;20578;-64
2022/07/22 18:33:54;;;;;;;3.28;0.80;;;21.10;87.60;;;;;;10496166;27;20482;-64
2022/07/22 18:38:55;;;;;;;1.38;0.90;;;21.00;87.60;;;;;;10514635;27;20405;-64
2022/07/22 18:43:56;;;;;;;1.30;0.73;;;21.00;87.70;;;;;;10500738;27;20518;-64
2022/07/22 18:48:56;;;;;;;1.70;0.90;;;21.00;87.80;;;;;;10500973;27;20148;-64
2022/07/22 18:53:57;;;;;;;1.75;0.98;;;21.00;87.90;;;;;;10504852;27;20585;-64
2022/07/22 18:58:58;;;;;;;1.17;0.70;;;20.90;87.90;;;;;;10508486;27;20393;-64
2022/07/22 19:03:59;;;;;;;2.22;0.90;;;20.90;88.00;;;;;;10501753;27;20362;-64
2022/07/22 19:08:59;;;;;;;1.15;0.70;;;20.90;88.20;;;;;;10501607;27;20207;-63
2022/07/22 19:14:00;;;;;;;0.90;0.68;;;20.90;88.20;;;;;;10494902;27;20471;-64
2022/07/22 19:19:01;;;;;;;1.95;0.90;;;20.80;88.30;;;;;;10500094;27;20444;-64
2022/07/22 19:24:03;;;;;;;2.20;0.90;;;20.80;88.30;;;;;;10506752;27;20039;-64
2022/07/22 19:29:03;;;;;;;1.00;0.70;;;20.80;88.40;;;;;;10505361;27;20384;-64
2022/07/22 19:34:04;;;;;;;0.73;0.70;;;20.80;88.60;;;;;;10497691;27;20375;-64
2022/07/22 19:39:05;;;;;;;2.90;0.98;;;20.70;88.50;;;;;;10498733;27;20367;-64
2022/07/22 19:44:06;;;;;;;1.52;0.85;;;20.70;88.60;;;;;;10497705;27;20051;-64
2022/07/22 20:20:10;;;;;;;0.93;0.75;;;20.30;88.90;;;;;;10519330;22;20055;-63
2022/07/22 20:25:11;;;;;;;1.10;0.70;;;20.50;88.90;;;;;;10590829;27;20067;-63
2022/07/22 20:30:12;;;;;;;1.10;0.82;;;20.50;89.00;;;;;;10593633;27;20536;-63
2022/07/22 20:35:13;;;;;;;1.58;0.65;;;20.50;89.00;;;;;;10588495;27;20429;-63
2022/07/22 20:40:14;;;;;;;0.98;0.60;;;20.50;89.10;;;;;;10579621;27;20034;-63
2022/07/22 20:45:15;;;;;;;0.70;0.70;;;20.50;89.10;;;;;;10585733;27;20036;-64
2022/07/22 20:50:16;;;;;;;0.70;0.60;;;20.40;89.10;;;;;;10578116;28;20047;-63
2022/07/22 20:55:17;;;;;;;0.73;0.63;;;20.40;89.10;;;;;;10591973;28;20118;-65
2022/07/22 21:00:18;;;;;;;1.73;0.70;;;20.40;89.20;;;;;;10590780;27;20023;-64
2022/07/22 21:05:19;;;;;;;0.77;0.70;;;20.40;89.20;;;;;;10583992;27;20053;-65
2022/07/22 21:10:21;;;;;;;1.63;0.77;;;20.30;89.20;;;;;;10574371;27;20054;-65
2022/07/22 21:15:25;;;;;;;0.85;0.70;;;20.30;89.20;;;;;;10578550;27;20031;-65
2022/07/22 21:20:25;;;;;;;2.15;0.90;;;20.30;89.20;;;;;;10585421;28;20043;-65
2022/07/22 21:25:26;;;;;;;0.90;0.80;;;20.30;89.20;;;;;;10583615;27;20031;-65
2022/07/22 21:30:27;;;;;;;1.77;0.70;;;20.30;89.20;;;;;;10577250;27;20139;-64
2022/07/22 21:35:28;;;;;;;1.70;0.82;;;20.20;89.20;;;;;;10588390;27;20030;-64
2022/07/22 21:40:31;;;;;;;2.58;0.77;;;20.30;89.30;;;;;;10589978;27;20015;-64
2022/07/22 21:45:31;;;;;;;1.17;0.50;;;20.20;89.20;;;;;;10585012;27;20085;-64
2022/07/22 21:50:32;;;;;;;0.85;0.80;;;20.20;89.20;;;;;;10587499;27;20126;-64
2022/07/22 21:55:33;;;;;;;1.15;0.80;;;20.20;89.30;;;;;;10579862;27;20073;-64
2022/07/22 22:00:33;;;;;;;0.93;0.90;;;20.20;90.00;;;;;;10578570;27;20067;-65
2022/07/22 22:05:34;;;;;;;0.93;0.80;;;20.10;89.30;;;;;;10582900;27;20401;-64
2022/07/22 22:10:36;;;;;;;1.05;0.85;;;20.10;89.30;;;;;;10589596;27;20045;-65
2022/07/22 22:15:38;;;;;;;0.80;0.60;;;20.10;89.40;;;;;;10588738;27;20064;-64
2022/07/22 22:20:38;;;;;;;1.45;0.88;;;20.10;89.40;;;;;;10578220;27;20305;-64
2022/07/22 22:25:39;;;;;;;2.60;0.70;;;20.10;89.40;;;;;;10589765;27;20414;-64
2022/07/22 22:30:40;;;;;;;2.20;0.70;;;20.10;89.40;;;;;;10579068;27;20107;-64
2022/07/22 22:35:41;;;;;;;1.00;0.82;;;20.10;89.40;;;;;;10585753;27;20031;-64
2022/07/22 22:40:41;;;;;;;1.40;0.77;;;20.10;89.50;;;;;;10583022;27;20109;-64
2022/07/22 22:45:42;;;;;;;2.80;1.00;;;20.00;89.40;;;;;;10582149;27;20050;-64
2022/07/22 22:50:43;;;;;;;3.88;0.82;;;20.00;89.60;;;;;;10584196;27;20486;-64
2022/07/22 22:55:44;;;;;;;1.50;0.90;;;20.00;89.60;;;;;;10593172;27;20051;-65
2022/07/22 23:00:45;;;;;;;2.60;0.95;;;20.00;90.00;;;;;;10589452;27;20024;-64
2022/07/22 23:05:45;;;;;;;1.00;0.90;;;20.00;89.60;;;;;;10581530;27;20036;-64
2022/07/22 23:10:46;;;;;;;1.73;0.80;;;20.00;89.70;;;;;;10580853;27;20031;-65
2022/07/22 23:15:47;;;;;;;1.42;1.10;;;19.90;90.10;;;;;;10592860;27;20110;-65
2022/07/22 23:20:47;;;;;;;1.60;0.98;;;19.90;89.70;;;;;;10578452;27;20046;-64
2022/07/22 23:25:49;;;;;;;1.10;0.80;;;19.90;89.80;;;;;;10579716;27;20463;-64
2022/07/22 23:30:50;;;;;;;1.20;1.00;;;19.90;89.80;;;;;;10572655;27;20027;-64
2022/07/22 23:35:51;;;;;;;1.85;0.90;;;19.90;89.80;;;;;;10578828;27;20016;-64
2022/07/22 23:40:51;;;;;;;1.70;0.80;;;19.90;89.90;;;;;;10591253;27;20015;-64
2022/07/22 23:45:52;;;;;;;1.55;1.00;;;19.80;89.80;;;;;;10576125;27;20098;-64
2022/07/22 23:50:53;;;;;;;0.88;0.80;;;19.80;89.90;;;;;;10589653;27;20031;-64
2022/07/22 23:55:53;;;;;;;1.70;1.38;;;19.80;90.00;;;;;;10586740;27;20417;-64
